createdAt,value
2022-12-12T12:23:58.786Z,7.60
2022-12-12T12:24:58.705Z,13.20
2022-12-12T12:25:58.645Z,14.80
2022-12-12T12:26:58.592Z,14.40
2022-12-12T12:27:58.535Z,13.70
2022-12-12T12:28:58.486Z,13.50
2022-12-12T12:29:58.760Z,13.70
2022-12-12T12:30:58.447Z,12.20
2022-12-12T12:31:58.325Z,12.50
2022-12-12T12:32:58.292Z,12.70
2022-12-12T12:33:58.237Z,12.50
2022-12-12T12:34:58.193Z,12.10
2022-12-12T12:35:58.130Z,11.90
2022-12-12T12:36:58.091Z,11.50
2022-12-12T12:37:58.021Z,11.50
2022-12-12T12:38:57.972Z,12.00
2022-12-12T12:39:57.944Z,11.50
2022-12-12T12:40:58.340Z,10.90
2022-12-12T12:41:57.820Z,11.80
2022-12-12T12:42:57.776Z,11.90
2022-12-12T12:43:57.727Z,12.00
2022-12-12T12:44:57.681Z,11.10
2022-12-12T12:45:57.711Z,11.40
2022-12-12T12:46:57.580Z,11.10
2022-12-12T12:47:57.527Z,10.80
2022-12-12T12:48:57.478Z,11.40
2022-12-12T12:49:57.430Z,11.30
2022-12-12T12:50:57.379Z,10.90
2022-12-12T12:51:57.331Z,11.00
2022-12-12T12:52:57.295Z,11.00
2022-12-12T12:53:57.232Z,11.00
2022-12-12T12:54:57.184Z,10.50
2022-12-12T12:55:57.152Z,11.40
2022-12-12T12:56:57.091Z,10.50
2022-12-12T12:57:57.035Z,11.30
2022-12-12T12:58:56.989Z,11.60
2022-12-12T12:59:56.938Z,11.00
2022-12-12T13:00:56.890Z,11.00
2022-12-12T13:01:56.876Z,11.10
2022-12-12T13:02:56.849Z,10.80
2022-12-12T13:03:56.746Z,11.70
2022-12-12T13:04:56.698Z,11.40
2022-12-12T13:05:56.652Z,11.50
2022-12-12T13:06:56.600Z,10.80
2022-12-12T13:07:56.599Z,11.50
2022-12-12T13:08:56.506Z,11.60
2022-12-12T13:09:56.457Z,11.40
2022-12-12T19:01:19.766Z,13.70
2022-12-12T19:02:19.645Z,19.80
2022-12-12T19:03:19.595Z,24.80
2022-12-12T19:04:23.532Z,26.50
2022-12-12T19:05:19.436Z,27.70
2022-12-12T19:06:19.381Z,27.10
2022-12-12T19:07:19.325Z,26.60
2022-12-12T19:08:19.305Z,28.30
2022-12-12T19:09:19.219Z,30.20
2022-12-12T19:10:19.163Z,28.90
2022-12-12T19:11:19.112Z,29.20
2022-12-12T19:12:19.055Z,29.10
2022-12-12T19:13:19.004Z,30.20
2022-12-12T19:14:18.948Z,30.10
2022-12-12T19:15:18.908Z,28.30
2022-12-12T19:16:18.897Z,28.30
2022-12-12T19:17:25.253Z,28.10
2022-12-12T19:18:18.734Z,26.70
2022-12-12T19:19:18.685Z,26.50
2022-12-12T19:20:18.631Z,27.10
2022-12-12T19:21:18.584Z,29.40
2022-12-12T19:22:43.826Z,31.40
2022-12-12T19:23:18.472Z,29.00
2022-12-12T19:24:18.423Z,27.80
2022-12-12T19:25:18.381Z,27.50
2022-12-12T19:26:18.319Z,26.70
2022-12-12T19:27:18.267Z,27.10
2022-12-12T19:28:18.216Z,26.80
2022-12-12T19:29:18.164Z,26.30
2022-12-12T19:30:18.477Z,26.20
2022-12-12T19:31:18.122Z,26.90
2022-12-12T19:32:18.015Z,26.20
2022-12-12T19:33:17.977Z,26.10
2022-12-12T19:34:17.911Z,25.20
2022-12-12T19:35:17.892Z,25.00
2022-12-12T19:36:17.808Z,25.00
2022-12-12T19:37:17.753Z,25.40
2022-12-12T19:38:24.154Z,24.90
2022-12-12T19:39:17.649Z,26.70
2022-12-12T19:40:17.820Z,26.50
2022-12-12T19:41:17.548Z,24.80
2022-12-12T19:42:17.498Z,25.30
2022-12-12T19:43:17.447Z,25.10
2022-12-12T19:44:17.394Z,26.70
2022-12-12T19:45:17.343Z,25.60
2022-12-12T19:46:17.319Z,26.20
2022-12-12T19:47:17.242Z,26.50
2022-12-12T19:48:17.196Z,25.40
2022-12-12T19:49:17.155Z,28.20
2022-12-12T19:50:17.453Z,27.60
2022-12-12T19:52:16.987Z,27.00
2022-12-12T19:53:16.940Z,27.80
2022-12-12T19:54:16.886Z,28.70
2022-12-12T19:55:16.871Z,30.70
2022-12-12T19:56:16.791Z,29.80
2022-12-12T19:57:17.344Z,31.30
2022-12-12T19:58:16.680Z,29.10
2022-12-12T19:59:16.653Z,29.00
2022-12-12T20:00:16.867Z,28.20
2022-12-12T20:01:16.570Z,27.80
2022-12-12T20:02:16.544Z,27.70
2022-12-12T20:03:16.437Z,28.10
2022-12-12T20:04:16.374Z,28.00
2022-12-12T20:05:16.352Z,28.30
2022-12-12T20:06:16.270Z,28.70
2022-12-12T20:07:16.222Z,28.30
2022-12-12T20:08:16.259Z,28.80
2022-12-12T20:09:16.143Z,28.20
2022-12-12T20:10:16.415Z,27.60
2022-12-12T20:11:16.038Z,27.30
2022-12-12T20:12:15.962Z,26.50
2022-12-12T20:13:15.944Z,27.50
2022-12-12T20:14:15.871Z,28.50
2022-12-12T20:15:15.848Z,27.40
2022-12-12T20:16:15.808Z,26.80
2022-12-12T20:17:15.776Z,27.40
2022-12-12T20:18:16.637Z,28.60
2022-12-12T20:19:15.657Z,29.80
2022-12-12T20:20:15.918Z,27.60
2022-12-12T20:21:36.294Z,27.80
2022-12-12T20:22:15.456Z,29.20
2022-12-12T20:23:15.444Z,28.70
2022-12-12T20:24:15.351Z,27.30
2022-12-12T20:25:15.305Z,28.60
2022-12-12T20:26:15.254Z,28.20
2022-12-12T20:27:15.276Z,28.70
2022-12-12T20:28:15.156Z,28.70
2022-12-12T20:29:15.100Z,28.10
2022-12-12T20:30:15.314Z,27.80
2022-12-12T20:31:15.066Z,28.60
2022-12-12T20:32:14.947Z,28.70
2022-12-12T20:33:14.896Z,28.60
2022-12-12T20:34:14.843Z,27.60
2022-12-12T20:35:14.793Z,28.70
2022-12-12T20:36:14.741Z,28.80
2022-12-12T20:37:19.728Z,29.40
2022-12-12T20:38:14.638Z,28.80
2022-12-12T20:39:14.592Z,29.80
2022-12-12T20:40:14.881Z,30.80
2022-12-12T20:41:14.487Z,31.00
2022-12-12T20:42:14.437Z,29.80
2022-12-12T20:43:14.409Z,30.10
2022-12-12T20:44:14.369Z,31.00
2022-12-12T20:45:14.448Z,31.10
2022-12-12T20:46:14.292Z,29.50
2022-12-12T20:47:14.190Z,29.80
2022-12-12T20:48:14.131Z,28.80
2022-12-12T20:49:14.081Z,28.40
2022-12-12T20:50:14.037Z,27.70
2022-12-12T20:51:45.617Z,26.80
2022-12-12T20:52:13.930Z,27.70
2022-12-12T20:53:13.899Z,28.20
2022-12-12T20:54:13.825Z,27.20
2022-12-12T20:55:14.077Z,27.40
2022-12-12T20:56:13.725Z,27.40
2022-12-12T20:57:13.679Z,26.60
2022-12-12T20:58:13.620Z,27.30
2022-12-12T20:59:13.576Z,26.10
2022-12-12T21:00:13.801Z,26.40
2022-12-12T21:01:13.551Z,26.00
2022-12-12T21:02:13.420Z,25.20
2022-12-12T21:03:13.420Z,27.10
2022-12-12T21:04:13.314Z,25.50
2022-12-12T21:05:13.523Z,27.00
2022-12-12T21:06:13.291Z,29.00
2022-12-12T21:07:13.159Z,27.70
2022-12-12T21:08:13.283Z,28.20
2022-12-12T21:09:19.219Z,28.90
2022-12-12T21:10:13.032Z,28.70
2022-12-12T21:11:12.957Z,28.00
2022-12-12T21:12:12.924Z,28.90
2022-12-12T21:13:12.859Z,28.80
2022-12-12T21:14:12.802Z,28.20
2022-12-12T21:15:12.753Z,29.00
2022-12-12T21:16:12.735Z,27.60
2022-12-12T21:17:12.652Z,28.70
2022-12-12T21:18:12.595Z,27.50
2022-12-12T21:19:12.549Z,28.50
2022-12-12T21:20:12.494Z,28.20
2022-12-12T21:21:12.446Z,28.90
2022-12-12T21:22:12.393Z,29.30
2022-12-12T21:23:12.342Z,27.30
2022-12-12T21:25:12.592Z,27.60
2022-12-12T21:26:16.721Z,28.30
2022-12-12T21:27:12.135Z,27.60
2022-12-12T21:28:12.085Z,27.20
2022-12-12T21:29:12.031Z,27.70
2022-12-12T21:30:11.990Z,27.90
2022-12-12T21:31:11.998Z,26.80
2022-12-12T21:32:11.883Z,27.20
2022-12-12T21:33:11.828Z,28.20
2022-12-12T21:34:11.777Z,27.90
2022-12-12T21:35:12.262Z,28.60
2022-12-12T21:36:11.675Z,26.90
2022-12-12T21:37:11.622Z,29.00
2022-12-12T21:38:11.575Z,26.80
2022-12-12T21:39:11.730Z,27.20
2022-12-12T21:40:11.470Z,27.80
2022-12-12T21:41:11.443Z,26.20
2022-12-12T21:42:11.368Z,26.40
2022-12-12T21:43:11.316Z,28.10
2022-12-12T21:44:11.271Z,28.30
2022-12-12T21:45:11.706Z,27.00
2022-12-12T21:46:11.209Z,28.20
2022-12-12T21:47:11.109Z,27.50
2022-12-12T21:48:11.062Z,27.80
2022-12-12T21:49:11.016Z,27.90
2022-12-12T21:50:10.957Z,27.50
2022-12-12T21:51:10.904Z,27.40
2022-12-12T21:52:10.855Z,28.90
2022-12-12T21:53:10.811Z,29.00
2022-12-12T21:54:10.751Z,29.70
2022-12-12T21:55:10.701Z,30.70
2022-12-12T21:56:10.651Z,32.40
2022-12-12T21:57:10.616Z,33.00
2022-12-12T21:58:10.576Z,33.90
2022-12-12T21:59:10.495Z,34.00
2022-12-12T22:00:10.444Z,35.30
2022-12-12T22:01:10.463Z,35.10
2022-12-12T22:02:10.340Z,36.30
2022-12-12T22:03:10.317Z,34.10
2022-12-12T22:04:10.238Z,35.40
2022-12-12T22:05:10.186Z,36.30
2022-12-12T22:06:10.139Z,35.30
2022-12-12T22:07:10.083Z,36.60
2022-12-12T22:08:10.122Z,37.30
2022-12-12T22:09:09.989Z,34.90
2022-12-12T22:10:10.923Z,38.30
2022-12-12T22:11:09.879Z,37.30
2022-12-12T22:12:09.825Z,36.40
2022-12-12T22:13:09.793Z,34.90
